createdAt,value
2016-05-12T00:00:51.823Z,16.39
2016-05-12T00:01:51.435Z,16.38
2016-05-12T00:02:51.422Z,16.36
2016-05-12T00:03:51.394Z,16.35
2016-05-12T00:04:51.224Z,16.39
2016-05-12T00:05:51.211Z,16.33
2016-05-12T00:06:51.338Z,16.29
2016-05-12T00:07:51.154Z,16.39
2016-05-12T00:08:51.297Z,16.33
2016-05-12T00:09:51.284Z,16.31
2016-05-12T00:10:51.256Z,16.23
2016-05-12T00:11:51.243Z,16.16
2016-05-12T00:12:51.215Z,16.23
2016-05-12T00:13:51.202Z,16.2
2016-05-12T00:14:51.188Z,16.09
2016-05-12T00:15:51.332Z,16.04
2016-05-12T00:16:51.146Z,16.08
2016-05-12T00:17:51.118Z,16.04
2016-05-12T00:18:51.106Z,16.05
2016-05-12T00:19:51.077Z,16.04
2016-05-12T00:20:51.064Z,16.1
2016-05-12T00:21:51.035Z,16
2016-05-12T00:22:51.022Z,15.97
2016-05-12T00:23:50.854Z,16
2016-05-12T00:24:50.982Z,15.98
2016-05-12T00:25:50.968Z,15.92
2016-05-12T00:26:50.955Z,15.92
2016-05-12T00:27:50.770Z,15.95
2016-05-12T00:28:50.913Z,15.9
2016-05-12T00:29:50.885Z,15.84
2016-05-12T00:30:51.278Z,15.88
2016-05-12T00:31:50.844Z,15.83
2016-05-12T00:32:50.831Z,15.84
2016-05-12T00:33:50.802Z,15.77
2016-05-12T00:34:50.789Z,15.8
2016-05-12T00:35:50.777Z,15.82
2016-05-12T00:36:50.747Z,15.79
2016-05-12T00:37:50.735Z,15.75
2016-05-12T00:38:50.722Z,15.83
2016-05-12T00:39:50.709Z,15.72
2016-05-12T00:40:50.508Z,15.76
2016-05-12T00:41:50.652Z,15.73
2016-05-12T00:42:50.623Z,15.67
2016-05-12T00:43:50.610Z,15.79
2016-05-12T00:44:50.596Z,15.75
2016-05-12T00:45:50.568Z,15.67
2016-05-12T00:46:50.557Z,15.73
2016-05-12T00:47:50.527Z,15.64
2016-05-12T00:48:50.515Z,15.58
2016-05-12T00:49:50.485Z,15.65
2016-05-12T00:50:50.473Z,15.7
2016-05-12T00:51:50.459Z,15.55
2016-05-12T00:52:50.431Z,15.62
2016-05-12T00:53:50.403Z,15.62
2016-05-12T00:54:50.390Z,15.58
2016-05-12T00:55:50.376Z,15.64
2016-05-12T00:56:50.348Z,15.61
2016-05-12T00:57:50.179Z,15.58
2016-05-12T00:58:50.307Z,15.54
2016-05-12T00:59:50.294Z,15.59
2016-05-12T01:00:50.108Z,15.46
2016-05-12T01:01:50.253Z,15.51
2016-05-12T01:02:50.225Z,15.44
2016-05-12T01:03:50.211Z,15.43
2016-05-12T01:04:50.182Z,15.44
2016-05-12T01:05:50.169Z,15.4
2016-05-12T01:06:50.000Z,15.43
2016-05-12T01:07:50.128Z,15.46
2016-05-12T01:08:50.131Z,15.44
2016-05-12T01:09:50.086Z,15.4
2016-05-12T01:10:50.074Z,15.39
2016-05-12T01:11:50.044Z,15.36
2016-05-12T01:12:50.032Z,15.47
2016-05-12T01:13:50.004Z,15.36
2016-05-12T01:14:49.991Z,15.39
2016-05-12T01:15:49.963Z,15.36
2016-05-12T01:16:50.340Z,15.35
2016-05-12T01:17:49.935Z,15.35
2016-05-12T01:18:49.907Z,15.29
2016-05-12T01:19:49.895Z,15.27
2016-05-12T01:20:49.881Z,15.35
2016-05-12T01:21:49.854Z,15.28
2016-05-12T01:22:49.824Z,15.27
2016-05-12T01:23:49.812Z,15.28
2016-05-12T01:24:49.784Z,15.25
2016-05-12T01:25:49.770Z,15.21
2016-05-12T01:26:49.601Z,15.27
2016-05-12T01:27:49.744Z,15.17
2016-05-12T01:28:49.544Z,15.19
2016-05-12T01:29:49.687Z,15.17
2016-05-12T01:30:49.659Z,15.22
2016-05-12T01:31:49.489Z,15.19
2016-05-12T01:32:49.633Z,15.19
2016-05-12T01:33:49.619Z,15.18
2016-05-12T01:34:49.591Z,15.19
2016-05-12T01:35:49.563Z,15.09
2016-05-12T01:36:49.550Z,15.06
2016-05-12T01:37:49.522Z,15.07
2016-05-12T01:38:49.508Z,15.14
2016-05-12T01:39:49.511Z,15.1
2016-05-12T01:40:49.466Z,15.09
2016-05-12T01:41:49.455Z,15.04
2016-05-12T01:42:49.425Z,15.1
2016-05-12T01:43:49.396Z,15.07
2016-05-12T01:44:49.383Z,15
2016-05-12T01:45:49.371Z,15.06
2016-05-12T01:46:49.343Z,14.92
2016-05-12T01:47:49.329Z,14.91
2016-05-12T01:48:49.301Z,14.94
2016-05-12T01:49:49.272Z,14.92
2016-05-12T01:50:49.259Z,14.94
2016-05-12T01:51:49.231Z,14.91
2016-05-12T01:52:49.218Z,14.96
2016-05-12T01:53:49.189Z,14.91
2016-05-12T01:54:49.176Z,14.96
2016-05-12T01:55:49.148Z,14.86
2016-05-12T01:56:49.135Z,14.84
2016-05-12T01:57:49.106Z,14.94
2016-05-12T01:58:48.953Z,14.97
2016-05-12T01:59:49.065Z,14.89
2016-05-12T02:00:49.051Z,14.91
2016-05-12T02:01:48.882Z,14.96
2016-05-12T02:02:49.025Z,14.85
2016-05-12T02:03:48.998Z,14.89
2016-05-12T02:04:48.969Z,14.92
2016-05-12T02:05:48.955Z,14.84
2016-05-12T02:06:48.927Z,14.91
2016-05-12T02:07:48.914Z,14.86
2016-05-12T02:08:48.886Z,14.88
2016-05-12T02:09:48.872Z,14.84
2016-05-12T02:10:48.860Z,14.82
2016-05-12T02:11:48.831Z,14.84
2016-05-12T02:12:48.646Z,14.77
2016-05-12T02:13:48.790Z,14.79
2016-05-12T02:14:48.761Z,14.77
2016-05-12T02:15:48.748Z,14.72
2016-05-12T02:16:48.580Z,14.85
2016-05-12T02:17:48.707Z,14.7
2016-05-12T02:18:48.678Z,14.72
2016-05-12T02:19:48.666Z,14.78
2016-05-12T02:20:48.637Z,14.69
2016-05-12T02:21:48.624Z,14.68
2016-05-12T02:22:48.439Z,14.72
2016-05-12T02:23:48.582Z,14.66
2016-05-12T02:24:48.554Z,14.69
2016-05-12T02:25:48.385Z,14.68
2016-05-12T02:26:48.512Z,14.65
2016-05-12T02:27:48.499Z,14.62
2016-05-12T02:28:48.470Z,14.6
2016-05-12T02:29:48.458Z,14.59
2016-05-12T02:30:48.445Z,14.66
2016-05-12T02:31:48.276Z,14.62
2016-05-12T02:32:48.388Z,14.63
2016-05-12T02:33:48.375Z,14.59
2016-05-12T02:34:48.205Z,14.58
2016-05-12T02:35:48.350Z,14.58
2016-05-12T02:36:48.320Z,14.5
2016-05-12T02:37:48.291Z,14.59
2016-05-12T02:38:48.279Z,14.51
2016-05-12T02:39:48.266Z,14.51
2016-05-12T02:40:48.238Z,14.51
2016-05-12T02:41:48.209Z,14.51
2016-05-12T02:42:48.196Z,14.5
2016-05-12T02:43:48.167Z,14.5
2016-05-12T02:44:48.138Z,14.5
2016-05-12T02:45:47.969Z,14.5
2016-05-12T02:46:48.097Z,14.5
2016-05-12T02:47:48.085Z,14.47
2016-05-12T02:48:48.055Z,14.47
2016-05-12T02:49:48.043Z,14.47
2016-05-12T02:50:48.015Z,14.35
2016-05-12T02:51:47.986Z,14.36
2016-05-12T02:52:47.973Z,14.35
2016-05-12T02:53:47.976Z,14.44
2016-05-12T02:54:47.931Z,14.35
2016-05-12T02:55:47.903Z,14.3
2016-05-12T02:56:47.889Z,14.35
2016-05-12T02:57:47.876Z,14.36
2016-05-12T02:58:47.849Z,14.37
2016-05-12T02:59:47.835Z,14.33
2016-05-12T03:00:47.807Z,14.36
2016-05-12T03:01:48.028Z,14.33
2016-05-12T03:02:47.765Z,14.4
2016-05-12T03:03:47.752Z,14.4
2016-05-12T03:04:47.724Z,14.33
2016-05-12T03:05:47.695Z,14.36
2016-05-12T03:06:47.683Z,14.36
2016-05-12T03:07:47.513Z,14.4
2016-05-12T03:08:47.641Z,14.18
2016-05-12T03:09:47.612Z,14.36
2016-05-12T03:10:47.600Z,14.2
2016-05-12T03:11:47.586Z,14.22
2016-05-12T03:12:47.558Z,14.22
2016-05-12T03:13:47.530Z,14.15
2016-05-12T03:14:47.516Z,14.23
2016-05-12T03:15:47.488Z,14.25
2016-05-12T03:16:47.396Z,14.22
2016-05-12T03:17:47.447Z,14.15
2016-05-12T03:18:47.433Z,14.15
2016-05-12T03:19:47.405Z,14.15
2016-05-12T03:20:47.392Z,14.14
2016-05-12T03:21:47.363Z,14.12
2016-05-12T03:22:47.350Z,14.11
2016-05-12T03:23:47.353Z,14.08
2016-05-12T03:24:47.309Z,14.1
2016-05-12T03:25:47.124Z,14.15
2016-05-12T03:26:47.251Z,14.04
2016-05-12T03:27:47.239Z,14.14
2016-05-12T03:28:47.210Z,14.08
2016-05-12T03:29:47.197Z,14.08
2016-05-12T03:30:47.168Z,14
2016-05-12T03:31:47.000Z,14
2016-05-12T03:32:47.143Z,14.08
2016-05-12T03:33:47.114Z,14.08
2016-05-12T03:34:47.086Z,14.08
2016-05-12T03:35:47.072Z,14.08
2016-05-12T03:36:47.044Z,14.05
2016-05-12T03:37:47.031Z,14.08
2016-05-12T03:38:47.003Z,14.05
2016-05-12T03:39:46.990Z,14.05
2016-05-12T03:40:46.961Z,14.05
2016-05-12T03:41:46.791Z,14.04
2016-05-12T03:42:46.919Z,14.08
2016-05-12T03:43:46.907Z,14.12
2016-05-12T03:44:46.878Z,14.08
2016-05-12T03:45:46.865Z,14.05
2016-05-12T03:46:47.399Z,14.05
2016-05-12T03:47:46.824Z,14.05
2016-05-12T03:48:46.639Z,14.05
2016-05-12T03:49:46.766Z,14.12
2016-05-12T03:50:46.754Z,14.08
2016-05-12T03:51:46.725Z,14.1
2016-05-12T03:52:46.713Z,14.08
2016-05-12T03:53:46.684Z,14.07
2016-05-12T03:54:46.671Z,14.05
2016-05-12T03:55:46.485Z,14.11
2016-05-12T03:56:46.629Z,14
2016-05-12T03:57:46.601Z,14.14
2016-05-12T03:58:46.573Z,14.17
2016-05-12T03:59:46.560Z,14.08
2016-05-12T04:00:46.531Z,14.12
2016-05-12T04:01:46.518Z,14.17
2016-05-12T04:02:46.504Z,14.11
2016-05-12T04:03:46.476Z,14.08
2016-05-12T04:04:46.307Z,14.1
2016-05-12T04:05:46.435Z,14.1
2016-05-12T04:06:46.406Z,14.11
2016-05-12T04:07:46.393Z,14.11
2016-05-12T04:08:46.364Z,14.11
2016-05-12T04:09:46.352Z,14.11
2016-05-12T04:10:46.339Z,14.12
2016-05-12T04:11:46.311Z,14.11
2016-05-12T04:12:46.281Z,14.08
2016-05-12T04:13:46.269Z,14.14
2016-05-12T04:14:46.240Z,14.11
2016-05-12T04:15:46.227Z,14.11
2016-05-12T04:16:46.042Z,14.12
2016-05-12T04:17:46.185Z,14.1
2016-05-12T04:18:46.158Z,14.15
2016-05-12T04:19:46.144Z,14.1
2016-05-12T04:20:46.116Z,14.12
2016-05-12T04:21:46.102Z,14.14
2016-05-12T04:22:46.074Z,14.14
2016-05-12T04:23:46.045Z,14.11
2016-05-12T04:24:46.032Z,14.14
2016-05-12T04:25:46.004Z,14.15
2016-05-12T04:26:45.991Z,14.15
2016-05-12T04:27:45.806Z,14.12
2016-05-12T04:28:45.949Z,14.15
2016-05-12T04:29:45.921Z,14.17
2016-05-12T04:30:45.909Z,14.23
2016-05-12T04:31:46.098Z,14.22
2016-05-12T04:32:45.867Z,14.23
2016-05-12T04:33:45.854Z,14.22
2016-05-12T04:34:45.825Z,14.22
2016-05-12T04:35:45.812Z,14.2
2016-05-12T04:36:45.799Z,14.25
2016-05-12T04:37:45.756Z,14.28
2016-05-12T04:38:45.743Z,14.4
2016-05-12T04:39:45.714Z,14.36
2016-05-12T04:40:45.544Z,14.36
2016-05-12T04:41:45.688Z,14.41
2016-05-12T04:42:45.721Z,14.5
2016-05-12T04:43:45.631Z,14.48
2016-05-12T04:44:45.618Z,14.44
2016-05-12T04:45:45.589Z,14.47
2016-05-12T04:46:45.655Z,14.53
2016-05-12T04:47:45.547Z,14.51
2016-05-12T04:48:45.535Z,14.53
2016-05-12T04:49:45.505Z,14.54
2016-05-12T04:50:45.494Z,14.51
2016-05-12T04:51:45.480Z,14.6
2016-05-12T04:52:45.452Z,14.6
2016-05-12T04:53:45.423Z,14.59
2016-05-12T04:54:45.410Z,14.63
2016-05-12T04:55:45.382Z,14.66
2016-05-12T04:56:45.369Z,14.66
2016-05-12T04:57:45.340Z,14.69
2016-05-12T04:58:45.171Z,14.77
2016-05-12T04:59:45.299Z,14.72
2016-05-12T05:00:45.285Z,14.66
2016-05-12T05:01:45.273Z,14.72
2016-05-12T05:02:45.244Z,14.73
2016-05-12T05:03:45.232Z,14.77
2016-05-12T05:04:45.218Z,14.82
2016-05-12T05:05:45.190Z,14.88
2016-05-12T05:06:45.162Z,14.89
2016-05-12T05:07:45.148Z,14.89
2016-05-12T05:08:45.120Z,14.85
2016-05-12T05:09:45.106Z,14.96
2016-05-12T05:10:45.078Z,14.94
2016-05-12T05:11:46.065Z,14.94
2016-05-12T05:12:45.037Z,15.04
2016-05-12T05:13:45.024Z,15.09
2016-05-12T05:14:44.995Z,15.14
2016-05-12T05:15:44.982Z,15.06
2016-05-12T05:16:45.344Z,15.21
2016-05-12T05:17:44.941Z,15.19
2016-05-12T05:18:44.913Z,15.31
2016-05-12T05:19:45.071Z,15.35
2016-05-12T05:20:44.871Z,15.35
2016-05-12T05:21:44.858Z,15.33
2016-05-12T05:22:44.844Z,15.29
2016-05-12T05:23:44.817Z,15.43
2016-05-12T05:24:44.804Z,15.39
2016-05-12T05:25:44.775Z,15.52
2016-05-12T05:26:44.762Z,15.43
2016-05-12T05:27:44.577Z,15.57
2016-05-12T05:28:44.720Z,15.58
2016-05-12T05:29:44.707Z,15.68
2016-05-12T05:30:44.679Z,15.65
2016-05-12T05:31:44.541Z,15.65
2016-05-12T05:32:44.653Z,15.72
2016-05-12T05:33:44.624Z,15.77
2016-05-12T05:34:44.596Z,15.72
2016-05-12T05:35:44.583Z,15.7
2016-05-12T05:36:44.570Z,15.79
2016-05-12T05:37:44.541Z,15.77
2016-05-12T05:38:44.529Z,15.77
2016-05-12T05:39:44.501Z,15.88
2016-05-12T05:40:44.487Z,15.84
2016-05-12T05:41:44.475Z,15.95
2016-05-12T05:42:44.445Z,15.95
2016-05-12T05:43:44.432Z,16
2016-05-12T05:44:44.420Z,16.09
2016-05-12T05:45:44.391Z,16.1
2016-05-12T05:46:44.394Z,16.24
2016-05-12T05:47:44.350Z,16.24
2016-05-12T05:48:44.336Z,16.36
2016-05-12T05:49:44.308Z,16.35
2016-05-12T05:50:44.311Z,16.49
2016-05-12T05:51:44.282Z,16.56
2016-05-12T05:52:44.269Z,16.64
2016-05-12T05:53:44.240Z,16.64
2016-05-12T05:54:44.227Z,16.68
2016-05-12T05:55:44.216Z,16.74
2016-05-12T05:56:44.186Z,16.81
2016-05-12T05:57:44.173Z,16.79
2016-05-12T05:58:44.160Z,16.74
2016-05-12T05:59:44.132Z,16.87
2016-05-12T06:00:44.119Z,16.87
2016-05-12T06:01:44.106Z,17.02
2016-05-12T06:02:44.093Z,16.94
2016-05-12T06:03:44.065Z,17.02
2016-05-12T06:04:44.052Z,17.05
2016-05-12T06:05:44.039Z,17.15
2016-05-12T06:06:44.026Z,17.26
2016-05-12T06:07:43.997Z,17.38
2016-05-12T06:08:43.984Z,17.45
2016-05-12T06:09:43.970Z,17.56
2016-05-12T06:10:43.959Z,17.65
2016-05-12T06:11:43.945Z,17.7
2016-05-12T06:12:43.823Z,17.72
2016-05-12T06:13:43.919Z,17.7
2016-05-12T06:14:43.891Z,17.83
2016-05-12T06:15:43.878Z,17.79
2016-05-12T06:16:43.865Z,17.79
2016-05-12T06:17:43.852Z,17.82
2016-05-12T06:18:43.839Z,17.82
2016-05-12T06:19:43.827Z,18.01
2016-05-12T06:20:43.813Z,18
2016-05-12T06:21:43.785Z,18.05
2016-05-12T06:22:43.772Z,18.05
2016-05-12T06:23:43.602Z,18.18
2016-05-12T06:24:43.746Z,18.26
2016-05-12T06:25:43.749Z,18.34
2016-05-12T06:26:43.721Z,18.41
2016-05-12T06:27:43.551Z,18.52
2016-05-12T06:28:43.694Z,18.45
2016-05-12T06:29:43.666Z,18.49
2016-05-12T06:30:43.652Z,18.45
2016-05-12T06:31:43.655Z,18.41
2016-05-12T06:32:43.642Z,18.56
2016-05-12T06:33:43.615Z,18.58
2016-05-12T06:34:43.601Z,18.65
2016-05-12T06:35:43.587Z,18.63
2016-05-12T06:36:43.576Z,18.73
2016-05-12T06:37:43.562Z,18.77
2016-05-12T06:38:43.565Z,18.75
2016-05-12T06:39:43.537Z,18.81
2016-05-12T06:40:43.524Z,18.8
2016-05-12T06:41:43.511Z,18.86
2016-05-12T06:42:43.498Z,18.89
2016-05-12T06:43:43.516Z,18.96
2016-05-12T06:44:43.472Z,19.02
2016-05-12T06:45:43.443Z,19.07
2016-05-12T06:46:43.430Z,18.98
2016-05-12T06:47:43.433Z,19.07
2016-05-12T06:48:43.404Z,19.14
2016-05-12T06:49:43.434Z,19.08
2016-05-12T06:50:43.464Z,19.19
2016-05-12T06:51:43.494Z,19.21
2016-05-12T06:52:43.524Z,19.22
2016-05-12T06:53:43.554Z,19.44
2016-05-12T06:54:43.557Z,19.44
2016-05-12T06:55:43.560Z,19.51
2016-05-12T06:56:43.562Z,19.66
2016-05-12T06:57:43.564Z,19.79
2016-05-12T06:58:43.566Z,19.82
2016-05-12T06:59:43.559Z,19.89
2016-05-12T07:00:43.552Z,19.88
2016-05-12T07:01:43.762Z,19.95
2016-05-12T07:02:43.372Z,19.99
2016-05-12T07:03:43.528Z,19.94
2016-05-12T07:04:43.356Z,19.92
2016-05-12T07:05:43.502Z,20.16
2016-05-12T07:06:43.491Z,20.02
2016-05-12T07:07:43.481Z,20.16
2016-05-12T07:08:43.469Z,20.31
2016-05-12T07:09:43.458Z,20.4
2016-05-12T07:10:43.447Z,20.41
2016-05-12T07:11:43.434Z,20.44
2016-05-12T07:12:43.422Z,20.52
2016-05-12T07:13:43.409Z,20.47
2016-05-12T07:14:43.397Z,20.41
2016-05-12T07:15:43.385Z,20.5
2016-05-12T07:16:43.372Z,20.58
2016-05-12T07:17:43.375Z,20.56
2016-05-12T07:18:43.378Z,20.55
2016-05-12T07:19:43.350Z,20.56
2016-05-12T07:20:43.337Z,20.65
2016-05-12T07:21:43.324Z,20.66
2016-05-12T07:22:43.311Z,20.72
2016-05-12T07:23:43.314Z,20.75
2016-05-12T07:24:43.145Z,20.88
2016-05-12T07:25:43.289Z,21.05
2016-05-12T07:26:43.119Z,21.12
2016-05-12T07:27:43.105Z,21.21
2016-05-12T07:28:43.234Z,21.14
2016-05-12T07:29:43.236Z,21.22
2016-05-12T07:30:43.239Z,21.11
2016-05-12T07:31:43.211Z,21.14
2016-05-12T07:32:43.197Z,21.25
2016-05-12T07:33:43.185Z,21.32
2016-05-12T07:34:43.188Z,21.33
2016-05-12T07:35:43.018Z,21.37
2016-05-12T07:36:43.161Z,21.37
2016-05-12T07:37:42.993Z,21.43
2016-05-12T07:38:43.135Z,21.39
2016-05-12T07:39:43.123Z,21.67
2016-05-12T07:40:42.969Z,21.72
2016-05-12T07:41:43.097Z,21.76
2016-05-12T07:42:43.099Z,21.91
2016-05-12T07:43:43.087Z,21.96
2016-05-12T07:44:43.089Z,22.14
2016-05-12T07:45:43.061Z,22.18
2016-05-12T07:46:43.048Z,22.2
2016-05-12T07:47:43.051Z,22.29
2016-05-12T07:48:43.037Z,22.25
2016-05-12T07:49:43.025Z,22.26
2016-05-12T07:50:43.012Z,22.41
2016-05-12T07:51:42.998Z,22.43
2016-05-12T07:52:42.862Z,22.38
2016-05-12T07:53:42.989Z,22.32
2016-05-12T07:54:42.976Z,22.3
2016-05-12T07:55:42.962Z,22.47
2016-05-12T07:56:42.950Z,22.47
2016-05-12T07:57:42.937Z,22.57
2016-05-12T07:58:42.939Z,22.53
2016-05-12T07:59:42.927Z,22.59
2016-05-12T08:00:42.913Z,22.65
2016-05-12T08:01:43.666Z,22.57
2016-05-12T08:02:42.950Z,22.65
2016-05-12T08:03:42.750Z,22.7
2016-05-12T08:04:42.877Z,22.72
2016-05-12T08:05:42.864Z,22.83
2016-05-12T08:06:42.711Z,22.91
2016-05-12T08:07:42.855Z,22.96
2016-05-12T08:08:42.841Z,23.06
2016-05-12T08:09:42.687Z,23.28
2016-05-12T08:10:42.675Z,23.47
2016-05-12T08:11:42.819Z,23.54
2016-05-12T08:12:42.805Z,23.59
2016-05-12T08:13:42.808Z,23.62
2016-05-12T08:14:42.795Z,23.73
2016-05-12T08:15:42.813Z,23.78
2016-05-12T08:16:42.785Z,23.8
2016-05-12T08:17:42.771Z,23.93
2016-05-12T08:18:42.760Z,23.96
2016-05-12T08:19:42.762Z,23.96
2016-05-12T08:20:42.748Z,24.06
2016-05-12T08:21:42.737Z,24.02
2016-05-12T08:22:42.582Z,24.08
2016-05-12T08:23:42.725Z,24.14
2016-05-12T08:24:42.712Z,24.13
2016-05-12T08:25:42.731Z,24.23
2016-05-12T08:26:42.702Z,24.23
2016-05-12T08:27:42.705Z,24.21
2016-05-12T08:28:42.692Z,24.3
2016-05-12T08:29:42.678Z,24.26
2016-05-12T08:30:42.681Z,24.18
2016-05-12T08:31:42.981Z,24.23
2016-05-12T08:32:42.687Z,24.3
2016-05-12T08:33:42.659Z,24.33
2016-05-12T08:34:42.647Z,24.3
2016-05-12T08:35:42.492Z,24.35
2016-05-12T08:36:42.652Z,24.43
2016-05-12T08:37:42.622Z,24.54
2016-05-12T08:38:42.625Z,24.65
2016-05-12T08:39:42.613Z,24.74
2016-05-12T08:40:42.615Z,24.76
2016-05-12T08:41:42.602Z,24.89
2016-05-12T08:42:42.604Z,24.8
2016-05-12T08:43:42.591Z,24.95
2016-05-12T08:44:42.594Z,24.99
2016-05-12T08:45:42.582Z,24.91
2016-05-12T08:46:42.568Z,24.89
2016-05-12T08:47:42.415Z,25.11
2016-05-12T08:48:42.559Z,25.11
2016-05-12T08:49:42.561Z,25.22
2016-05-12T08:50:42.392Z,25.38
2016-05-12T08:51:42.551Z,25.32
2016-05-12T08:52:42.537Z,25.38
2016-05-12T08:53:42.540Z,25.35
2016-05-12T08:54:42.528Z,25.36
2016-05-12T08:55:42.514Z,25.43
2016-05-12T08:56:42.518Z,25.41
2016-05-12T08:57:42.504Z,25.38
2016-05-12T08:58:42.506Z,25.65
2016-05-12T08:59:42.510Z,25.77
2016-05-12T09:00:42.341Z,25.81
2016-05-12T09:01:43.546Z,25.88
2016-05-12T09:02:42.487Z,25.84
2016-05-12T09:03:42.489Z,25.91
2016-05-12T09:04:42.477Z,25.84
2016-05-12T09:05:42.494Z,25.93
2016-05-12T09:06:42.513Z,25.93
2016-05-12T09:07:42.516Z,25.95
2016-05-12T09:08:43.018Z,25.96
2016-05-12T09:09:42.880Z,26.18
2016-05-12T09:10:42.383Z,26.16
2016-05-12T09:11:42.449Z,26.26
2016-05-12T09:12:42.435Z,26.53
2016-05-12T09:13:42.454Z,26.55
2016-05-12T09:14:42.440Z,26.74
2016-05-12T09:15:42.272Z,26.84
2016-05-12T09:16:42.446Z,26.96
2016-05-12T09:17:42.449Z,26.9
2016-05-12T09:18:42.265Z,26.9
2016-05-12T09:19:42.423Z,26.95
2016-05-12T09:20:42.395Z,27.08
2016-05-12T09:21:42.648Z,27.1
2016-05-12T09:22:42.400Z,27.18
2016-05-12T09:23:42.403Z,27.29
2016-05-12T09:24:42.373Z,27.26
2016-05-12T09:25:42.220Z,27.32
2016-05-12T09:26:42.379Z,27.44
2016-05-12T09:27:42.366Z,27.54
2016-05-12T09:28:42.212Z,27.64
2016-05-12T09:29:42.356Z,27.85
2016-05-12T09:30:42.359Z,27.89
2016-05-12T09:31:42.299Z,27.95
2016-05-12T09:32:42.427Z,27.83
2016-05-12T09:33:42.351Z,27.8
2016-05-12T09:34:42.353Z,27.73
2016-05-12T09:35:42.200Z,27.73
2016-05-12T09:36:42.359Z,27.87
2016-05-12T09:37:42.331Z,28
2016-05-12T09:38:42.333Z,28.15
2016-05-12T09:39:42.352Z,28.26
2016-05-12T09:40:42.339Z,28.19
2016-05-12T09:41:42.326Z,28.42
2016-05-12T09:42:42.329Z,28.38
2016-05-12T09:43:42.315Z,28.33
2016-05-12T09:44:42.334Z,28.47
2016-05-12T09:45:42.321Z,28.47
2016-05-12T09:46:42.214Z,28.56
2016-05-12T09:47:42.936Z,28.52
2016-05-12T09:48:42.313Z,28.38
2016-05-12T09:49:42.316Z,28.26
2016-05-12T09:50:42.304Z,28.23
2016-05-12T09:51:42.306Z,28.17
2016-05-12T09:52:42.309Z,27.96
2016-05-12T09:53:42.295Z,28
2016-05-12T09:54:42.314Z,28.07
2016-05-12T09:55:42.301Z,28.14
2016-05-12T09:56:42.148Z,28.2
2016-05-12T09:57:42.150Z,28.08
2016-05-12T09:58:42.278Z,28.22
2016-05-12T09:59:42.295Z,28.35
2016-05-12T10:00:42.283Z,28.47
2016-05-12T10:01:42.145Z,28.57
2016-05-12T10:02:42.303Z,28.62
2016-05-12T10:03:42.511Z,28.6
2016-05-12T10:04:42.264Z,28.66
2016-05-12T10:05:42.266Z,28.69
2016-05-12T10:06:42.269Z,28.63
2016-05-12T10:07:42.271Z,28.64
2016-05-12T10:08:42.258Z,28.78
2016-05-12T10:09:42.261Z,28.7
2016-05-12T10:10:42.107Z,28.88
2016-05-12T10:11:42.250Z,28.98
2016-05-12T10:12:42.268Z,29.08
2016-05-12T10:13:42.255Z,29.14
2016-05-12T10:14:42.243Z,29.16
2016-05-12T10:15:42.088Z,29.02
2016-05-12T10:16:42.795Z,29.07
2016-05-12T10:17:42.251Z,29.05
2016-05-12T10:18:42.254Z,29.16
2016-05-12T10:19:42.241Z,29.13
2016-05-12T10:20:42.243Z,29.1
2016-05-12T10:21:42.074Z,28.96
2016-05-12T10:22:42.248Z,28.84
2016-05-12T10:23:42.236Z,28.74
2016-05-12T10:24:42.223Z,28.6
2016-05-12T10:25:42.226Z,28.63
2016-05-12T10:26:42.228Z,28.63
2016-05-12T10:27:42.215Z,28.59
2016-05-12T10:28:42.218Z,28.44
2016-05-12T10:29:42.205Z,28.54
2016-05-12T10:30:42.223Z,28.54
2016-05-12T10:31:42.350Z,28.32
2016-05-12T10:32:42.197Z,28.29
2016-05-12T10:33:42.201Z,28.22
2016-05-12T10:34:42.046Z,28.23
2016-05-12T10:35:42.189Z,28.19
2016-05-12T10:36:42.192Z,28.07
2016-05-12T10:37:42.180Z,28.01
2016-05-12T10:38:42.183Z,28.08
2016-05-12T10:39:42.185Z,28.02
2016-05-12T10:40:42.172Z,28.14
2016-05-12T10:41:42.018Z,28.26
2016-05-12T10:42:42.021Z,28.45
2016-05-12T10:43:42.008Z,28.59
2016-05-12T10:44:42.167Z,28.63
2016-05-12T10:45:42.169Z,28.7
2016-05-12T10:46:42.172Z,28.64
2016-05-12T10:47:42.004Z,28.81
2016-05-12T10:48:42.147Z,28.86
2016-05-12T10:49:42.149Z,28.86
2016-05-12T10:50:42.136Z,28.74
2016-05-12T10:51:41.983Z,28.63
2016-05-12T10:52:42.189Z,28.56
2016-05-12T10:53:42.129Z,28.47
2016-05-12T10:54:42.132Z,28.56
2016-05-12T10:55:42.134Z,28.69
2016-05-12T10:56:42.137Z,28.79
2016-05-12T10:57:42.140Z,28.88
2016-05-12T10:58:42.127Z,28.78
2016-05-12T10:59:42.129Z,28.72
2016-05-12T11:00:42.131Z,28.63
2016-05-12T11:01:42.119Z,28.72
2016-05-12T11:02:41.966Z,28.75
2016-05-12T11:03:42.108Z,28.72
2016-05-12T11:04:42.111Z,28.78
2016-05-12T11:05:42.114Z,28.62
2016-05-12T11:06:42.133Z,28.52
2016-05-12T11:07:41.948Z,28.47
2016-05-12T11:08:42.107Z,28.49
2016-05-12T11:09:42.108Z,28.33
2016-05-12T11:10:42.097Z,28.33
2016-05-12T11:11:42.100Z,28.25
2016-05-12T11:12:42.102Z,28.19
2016-05-12T11:13:42.089Z,28.22
2016-05-12T11:14:42.091Z,28.3
2016-05-12T11:15:42.094Z,28.38
2016-05-12T11:16:41.941Z,28.41
2016-05-12T11:17:42.084Z,28.3
2016-05-12T11:18:42.087Z,28.22
2016-05-12T11:19:42.090Z,28.3
2016-05-12T11:20:42.092Z,28.25
2016-05-12T11:21:42.079Z,28.15
2016-05-12T11:22:42.066Z,28.15
2016-05-12T11:23:42.084Z,28.22
2016-05-12T11:24:42.071Z,28.38
2016-05-12T11:25:42.090Z,28.45
2016-05-12T11:26:42.077Z,28.54
2016-05-12T11:27:42.079Z,28.62
2016-05-12T11:28:42.067Z,28.74
2016-05-12T11:29:42.070Z,28.88
2016-05-12T11:30:42.057Z,29.01
2016-05-12T11:31:42.075Z,29.12
2016-05-12T11:32:42.061Z,29.08
2016-05-12T11:33:42.471Z,28.97
2016-05-12T11:34:42.051Z,29.04
2016-05-12T11:35:42.053Z,28.89
2016-05-12T11:36:42.057Z,28.97
2016-05-12T11:37:42.044Z,28.94
2016-05-12T11:38:42.078Z,29.01
2016-05-12T11:39:42.049Z,28.89
2016-05-12T11:40:42.053Z,28.85
2016-05-12T11:41:42.055Z,28.93
2016-05-12T11:42:42.041Z,28.82
2016-05-12T11:43:41.889Z,28.79
2016-05-12T11:44:42.047Z,28.89
2016-05-12T11:45:42.050Z,28.94
2016-05-12T11:46:42.053Z,28.96
2016-05-12T11:47:42.040Z,29.01
2016-05-12T11:48:42.043Z,28.98
2016-05-12T11:49:42.045Z,29.17
2016-05-12T11:50:41.892Z,29.2
2016-05-12T11:51:42.035Z,29.24
2016-05-12T11:52:42.037Z,29.24
2016-05-12T11:53:42.040Z,29.23
2016-05-12T11:54:42.043Z,29.2
2016-05-12T11:55:42.030Z,29.08
2016-05-12T11:56:42.032Z,29.1
2016-05-12T11:57:42.035Z,29.14
2016-05-12T11:58:42.023Z,29.22
2016-05-12T11:59:42.025Z,29.32
2016-05-12T12:00:42.028Z,29.41
2016-05-12T12:01:42.187Z,29.47
2016-05-12T12:02:42.034Z,29.41
2016-05-12T12:03:42.037Z,29.32
2016-05-12T12:04:42.039Z,29.19
2016-05-12T12:05:42.025Z,29.26
2016-05-12T12:06:42.012Z,29.29
2016-05-12T12:07:42.015Z,29.32
2016-05-12T12:08:42.017Z,29.35
2016-05-12T12:09:42.021Z,29.32
2016-05-12T12:10:41.867Z,29.42
2016-05-12T12:11:42.025Z,29.41
2016-05-12T12:12:42.028Z,29.5
2016-05-12T12:13:41.860Z,29.39
2016-05-12T12:14:42.002Z,29.5
2016-05-12T12:15:42.036Z,29.54
2016-05-12T12:16:42.024Z,29.73
2016-05-12T12:17:42.027Z,29.76
2016-05-12T12:18:42.014Z,29.69
2016-05-12T12:19:42.001Z,29.65
2016-05-12T12:20:42.004Z,29.59
2016-05-12T12:21:42.021Z,29.63
2016-05-12T12:22:41.853Z,29.66
2016-05-12T12:23:42.058Z,29.71
2016-05-12T12:24:42.015Z,29.75
2016-05-12T12:25:42.001Z,29.79
2016-05-12T12:26:42.004Z,29.87
2016-05-12T12:27:42.023Z,29.91
2016-05-12T12:28:42.009Z,29.87
2016-05-12T12:29:41.856Z,29.93
2016-05-12T12:30:41.998Z,29.82
2016-05-12T12:31:42.033Z,29.97
2016-05-12T12:32:42.005Z,29.98
2016-05-12T12:33:42.007Z,30
2016-05-12T12:34:41.994Z,29.97
2016-05-12T12:35:42.012Z,29.91
2016-05-12T12:36:42.000Z,29.78
2016-05-12T12:37:42.003Z,29.82
2016-05-12T12:38:42.006Z,29.76
2016-05-12T12:39:41.851Z,29.69
2016-05-12T12:40:42.011Z,29.57
2016-05-12T12:41:42.014Z,29.51
2016-05-12T12:42:42.000Z,29.51
2016-05-12T12:43:42.003Z,29.61
2016-05-12T12:44:41.989Z,29.72
2016-05-12T12:45:41.836Z,29.71
2016-05-12T12:46:42.027Z,29.73
2016-05-12T12:47:42.029Z,29.71
2016-05-12T12:48:42.016Z,29.78
2016-05-12T12:49:42.002Z,29.93
2016-05-12T12:50:41.991Z,30
2016-05-12T12:51:41.837Z,30.15
2016-05-12T12:52:41.840Z,30.27
2016-05-12T12:53:41.999Z,30.46
2016-05-12T12:54:42.001Z,30.59
2016-05-12T12:55:41.988Z,30.63
2016-05-12T12:56:41.991Z,30.8